TAF and METAR

METAR for Troll A Oil Platform

ENQA 020150Z AUTO 19038KT 9999NDV FEW022/// BKN056/// 08/03 Q1016 W09/S4
Report created 2. des 02:50
report generated by an automatic observation system. wind 38 knots from S (190°) visibility > 10km some clouds (~25% cover) at 2200 feet broken clouds (~75% cover) at 5600 feet Temperature 8° with dewpoint at 3° (Humidity 70.68%) Pressure 1016 hPa
No TAF available for Troll A Oil Platform
Troll A Oil Platform in Norway at 20m

Latest 5 airports